EDDB/SXF METAR and TAF weather

Enter ICAO airport designator
Station Type Date Time Source
EDDB METAR 2019/04/25 21:50 UTC NOAA

EDDB 252150Z 09009KT CAVOK 18/04 Q1010 NOSIG


Station Type Date Time Source
EDDB Decoded METAR 2019/04/25 21:50 UTC NOAA

Berlin-Schoenefeld, Germany (EDDB) 52-23N 013-31E 50M
Apr 25, 2019 - 05:50 PM EDT / 2019.04.25 2150 UTC
Wind: from the E (090 degrees) at 10 MPH (9 KT):0
Visibility: greater than 7 mile(s):0
Temperature: 64 F (18 C)
Dew Point: 39 F (4 C)
Relative Humidity: 39%
Pressure (altimeter): 29.83 in. Hg (1010 hPa)
ob: EDDB 252150Z 09009KT CAVOK 18/04 Q1010 NOSIG
cycle: 22

Station Type Date Time Source
EDDB TAF 2019/04/25 18:27 UTC NOAA

TAF TAF EDDB 251700Z 2518/2618 08007KT CAVOK
BECMG 2606/2608 19007KT
BECMG 2609/2611 27011KT PROB30
TEMPO 2615/2618 28015G25KT

Example: see airport list